Time;durP1;ratioP1;P1;durP2;ratioP2;P2;SDS_P1;SDS_P2;PMS_P1;PMS_P2;Temp;Humidity;BMP_temperature;BMP_pressure;BME280_temperature;BME280_humidity;BME280_pressure;Samples;Min_cycle;Max_cycle;Signal;HPM_P1;HPM_P2
2022/03/31 00:00:50;;;;;;;12.25;10.48;;;;;;;8.60;64.62;94911.13;5020935;28;20026;-81
2022/03/31 00:03:20;;;;;;;14.73;11.57;;;;;;;8.54;64.64;94917.16;5020828;28;20065;-81
2022/03/31 00:05:49;;;;;;;15.80;11.63;;;;;;;8.48;64.96;94912.78;5020448;28;20069;-79
2022/03/31 00:08:18;;;;;;;12.65;10.45;;;;;;;8.45;65.03;94908.81;5020836;28;20097;-80
2022/03/31 00:10:49;;;;;;;12.43;9.73;;;;;;;8.44;65.42;94902.03;5020838;28;20054;-81
2022/03/31 00:13:19;;;;;;;12.25;10.25;;;;;;;8.50;65.32;94900.38;5020674;28;20066;-81
2022/03/31 00:15:47;;;;;;;11.98;9.65;;;;;;;8.56;65.28;94899.56;5019939;28;20110;-80
2022/03/31 00:18:17;;;;;;;11.13;9.48;;;;;;;8.63;65.92;94897.69;5020557;28;20038;-81
2022/03/31 00:20:45;;;;;;;12.63;10.13;;;;;;;8.69;65.19;94897.88;5020709;28;20102;-81
2022/03/31 00:23:13;;;;;;;14.30;10.32;;;;;;;8.71;65.25;94896.66;5020649;28;20042;-80
2022/03/31 00:25:41;;;;;;;13.50;10.90;;;;;;;8.72;64.30;94889.63;5020497;28;20038;-81
2022/03/31 00:28:11;;;;;;;10.90;9.40;;;;;;;8.71;65.22;94898.47;5020109;28;20038;-80
2022/03/31 00:30:39;;;;;;;11.10;9.88;;;;;;;8.77;64.83;94887.22;5020384;28;20042;-81
2022/03/31 00:33:07;;;;;;;12.00;10.45;;;;;;;8.80;64.12;94879.78;5020361;28;20050;-81
2022/03/31 00:35:35;;;;;;;12.45;9.75;;;;;;;8.82;64.55;94876.97;5020015;28;20041;-80
2022/03/31 00:38:03;;;;;;;13.07;10.98;;;;;;;8.81;63.47;94880.56;5019987;28;20198;-81
2022/03/31 00:40:32;;;;;;;10.57;9.48;;;;;;;8.70;63.33;94878.66;5020474;28;20034;-81
2022/03/31 00:43:00;;;;;;;12.15;9.63;;;;;;;8.65;64.10;94880.09;5020159;28;20106;-81
2022/03/31 00:45:34;;;;;;;12.60;9.43;;;;;;;8.61;63.73;94881.50;5019746;28;20073;-81
2022/03/31 00:48:03;;;;;;;10.85;9.73;;;;;;;8.55;63.48;94877.19;5019583;28;20034;-82
2022/03/31 00:50:33;;;;;;;12.25;9.57;;;;;;;8.54;63.92;94877.38;5020059;28;20034;-81
2022/03/31 00:53:01;;;;;;;9.15;8.25;;;;;;;8.55;63.89;94866.78;5019869;28;20098;-81
2022/03/31 00:55:49;;;;;;;9.95;8.88;;;;;;;8.52;63.59;94862.00;5019341;28;20048;-80
2022/03/31 00:58:18;;;;;;;9.98;8.80;;;;;;;8.49;63.65;94867.63;5019919;28;20058;-80
2022/03/31 01:00:47;;;;;;;12.57;9.30;;;;;;;8.48;63.75;94854.84;5019890;28;20034;-80
2022/03/31 01:03:15;;;;;;;9.90;8.63;;;;;;;8.41;63.68;94857.47;5019524;28;20054;-80
2022/03/31 01:05:43;;;;;;;10.55;9.20;;;;;;;8.30;63.79;94853.72;5019456;28;20034;-81
2022/03/31 01:08:11;;;;;;;10.82;9.55;;;;;;;8.18;63.85;94835.44;5019383;28;20061;-80
2022/03/31 01:10:39;;;;;;;11.02;9.85;;;;;;;8.10;64.26;94838.28;5019870;28;20046;-81
2022/03/31 01:13:08;;;;;;;11.20;9.98;;;;;;;8.03;64.50;94838.31;5019758;28;20034;-80
2022/03/31 01:15:36;;;;;;;10.95;9.85;;;;;;;8.03;64.94;94840.13;5019414;28;20085;-81
2022/03/31 01:18:06;;;;;;;11.48;10.15;;;;;;;8.01;64.99;94839.53;5018996;28;20098;-81
2022/03/31 01:20:34;;;;;;;12.88;9.68;;;;;;;8.01;64.94;94834.34;5019528;28;20703;-80
2022/03/31 01:23:03;;;;;;;12.02;10.27;;;;;;;8.04;64.70;94833.91;5019514;28;20030;-80
2022/03/31 01:25:34;;;;;;;11.25;9.80;;;;;;;8.04;65.05;94837.28;5019242;28;20057;-81
2022/03/31 01:28:01;;;;;;;11.43;10.23;;;;;;;8.08;65.09;94831.69;5018624;28;20042;-81
2022/03/31 01:30:29;;;;;;;11.30;10.10;;;;;;;8.11;65.22;94836.47;5019393;28;20076;-80
2022/03/31 01:32:57;;;;;;;11.18;9.95;;;;;;;8.15;65.43;94837.63;5019067;28;20054;-82
2022/03/31 01:35:24;;;;;;;10.88;9.73;;;;;;;8.16;65.05;94821.84;5018913;28;20105;-80
2022/03/31 01:37:52;;;;;;;10.45;9.38;;;;;;;8.16;65.50;94824.44;5018712;28;20042;-81
2022/03/31 01:40:20;;;;;;;12.13;10.02;;;;;;;8.16;65.18;94821.06;5019155;28;20093;-81
2022/03/31 01:42:49;;;;;;;10.15;9.02;;;;;;;8.17;65.97;94813.03;5019227;28;20040;-80
2022/03/31 01:45:17;;;;;;;10.50;9.43;;;;;;;8.19;65.18;94811.03;5018859;28;20060;-81
2022/03/31 01:47:46;;;;;;;11.82;10.45;;;;;;;8.18;64.98;94806.84;5018468;28;20059;-80
2022/03/31 01:50:14;;;;;;;11.85;10.25;;;;;;;8.11;65.10;94803.53;5018781;28;20101;-81
2022/03/31 01:52:43;;;;;;;12.95;11.35;;;;;;;8.05;65.07;94799.16;5018730;28;20052;-81
2022/03/31 01:55:11;;;;;;;13.10;11.60;;;;;;;7.99;65.45;94800.00;5018848;28;20041;-81
2022/03/31 01:57:39;;;;;;;13.63;11.57;;;;;;;7.92;65.69;94792.25;5017575;28;20050;-81
2022/03/31 02:00:10;;;;;;;15.23;11.57;;;;;;;7.87;66.20;94793.88;5018673;28;20031;-80
2022/03/31 02:02:39;;;;;;;12.70;11.35;;;;;;;7.86;66.28;94800.06;5018465;28;20058;-81
2022/03/31 02:05:08;;;;;;;13.13;11.15;;;;;;;7.88;66.46;94792.88;5018630;28;20037;-81
2022/03/31 02:07:36;;;;;;;14.32;12.45;;;;;;;7.90;66.06;94791.66;5017902;28;20042;-82
2022/03/31 02:10:04;;;;;;;15.63;11.75;;;;;;;7.92;65.86;94786.25;5018444;28;20053;-80
2022/03/31 02:12:33;;;;;;;14.63;12.23;;;;;;;7.96;66.55;94774.44;5018544;28;20061;-80
2022/03/31 02:15:00;;;;;;;14.85;13.25;;;;;;;7.96;65.90;94774.44;5018461;28;20038;-80
2022/03/31 02:17:30;;;;;;;15.20;12.70;;;;;;;7.89;66.47;94771.09;5017796;28;20058;-80
2022/03/31 02:19:58;;;;;;;14.05;11.43;;;;;;;7.92;66.90;94768.09;5018428;28;20481;-81
2022/03/31 02:22:25;;;;;;;12.63;10.85;;;;;;;8.02;66.92;94769.22;5018437;28;20097;-81
2022/03/31 02:24:53;;;;;;;16.58;12.38;;;;;;;8.11;66.48;94759.38;5018209;28;20102;-81
2022/03/31 02:27:20;;;;;;;15.43;12.40;;;;;;;8.20;66.30;94755.50;5017503;28;20045;-81
2022/03/31 02:29:48;;;;;;;14.23;11.73;;;;;;;8.28;65.99;94753.63;5018236;28;20068;-80
2022/03/31 02:32:16;;;;;;;14.82;12.13;;;;;;;8.33;66.44;94753.78;5018257;28;20085;-81
2022/03/31 02:34:45;;;;;;;15.20;11.80;;;;;;;8.39;66.04;94745.94;5018072;28;20034;-80
2022/03/31 02:37:12;;;;;;;14.75;11.98;;;;;;;8.47;65.71;94751.91;5017326;28;20311;-81
2022/03/31 02:39:40;;;;;;;12.80;11.32;;;;;;;8.49;66.20;94744.69;5018128;28;20065;-81
2022/03/31 02:42:08;;;;;;;12.73;10.95;;;;;;;8.53;66.36;94745.88;5017869;28;20034;-81
2022/03/31 02:44:35;;;;;;;15.63;11.32;;;;;;;8.57;66.35;94740.03;5018135;28;20038;-80
2022/03/31 02:47:03;;;;;;;14.80;12.20;;;;;;;8.62;65.79;94736.78;5017144;28;20094;-81
2022/03/31 02:49:31;;;;;;;14.18;11.75;;;;;;;8.64;65.56;94745.94;5018052;28;20074;-81
2022/03/31 02:52:01;;;;;;;15.40;12.55;;;;;;;8.65;65.36;94737.13;5017937;28;20106;-80
2022/03/31 02:57:14;;;;;;;15.02;11.30;;;;;;;8.75;65.15;94741.84;5017392;28;20062;-81
2022/03/31 02:59:42;;;;;;;15.48;12.27;;;;;;;8.74;64.60;94739.44;5017801;28;20568;-81
2022/03/31 03:02:10;;;;;;;16.63;12.00;;;;;;;8.63;64.27;94730.56;5017908;28;20046;-81
2022/03/31 03:04:38;;;;;;;16.00;12.95;;;;;;;8.54;64.75;94730.03;5017544;28;20034;-81
2022/03/31 03:07:07;;;;;;;13.90;11.68;;;;;;;8.50;65.43;94733.28;5017368;28;20038;-81
2022/03/31 03:09:36;;;;;;;15.95;12.15;;;;;;;8.44;65.11;94722.75;5021525;28;20047;-81
2022/03/31 03:12:05;;;;;;;17.20;12.07;;;;;;;8.44;65.52;94724.56;5021651;28;20046;-81
2022/03/31 03:14:33;;;;;;;17.05;12.50;;;;;;;8.47;65.01;94718.94;5021951;28;20030;-81
2022/03/31 03:17:01;;;;;;;15.63;12.35;;;;;;;8.45;65.10;94720.94;5020937;28;20093;-81
2022/03/31 03:19:28;;;;;;;14.27;10.77;;;;;;;8.49;65.46;94716.13;5021793;28;20054;-81
2022/03/31 03:21:56;;;;;;;15.18;11.68;;;;;;;8.50;65.61;94725.50;5021390;28;20073;-81
2022/03/31 03:24:25;;;;;;;17.98;13.27;;;;;;;8.50;65.26;94723.69;5021488;28;20085;-81
2022/03/31 03:26:53;;;;;;;16.45;12.90;;;;;;;8.45;64.89;94718.34;5020940;28;20057;-81
2022/03/31 03:29:21;;;;;;;17.30;12.77;;;;;;;8.36;65.02;94717.78;5021406;28;20038;-81
2022/03/31 03:31:51;;;;;;;16.58;12.18;;;;;;;8.27;65.08;94718.28;5021314;28;20058;-80
2022/03/31 03:34:19;;;;;;;16.73;12.48;;;;;;;8.18;65.29;94715.97;5021407;28;20130;-81
2022/03/31 03:36:56;;;;;;;18.42;12.45;;;;;;;8.11;65.47;94710.03;5035056;22;20086;-86
2022/03/31 03:39:52;;;;;;;15.48;12.32;;;;;;;8.08;65.51;94714.84;5003146;28;20050;-87
2022/03/31 03:42:28;;;;;;;15.57;12.07;;;;;;;8.03;65.57;94707.69;5004686;28;20134;-89
2022/03/31 03:45:00;;;;;;;15.68;11.77;;;;;;;8.02;65.75;94706.09;5003934;28;20093;-88
2022/03/31 03:47:53;;;;;;;14.65;11.68;;;;;;;8.03;66.32;94703.28;5003405;28;20111;-87
2022/03/31 03:50:30;;;;;;;20.33;14.07;;;;;;;8.05;66.37;94700.50;5002051;28;20050;-89
2022/03/31 03:53:11;;;;;;;24.33;17.05;;;;;;;8.00;66.68;94701.13;5003690;28;20405;-90
2022/03/31 03:55:50;;;;;;;24.17;17.70;;;;;;;7.92;67.31;94701.38;5002852;28;20604;-85
2022/03/31 03:58:34;;;;;;;23.60;17.27;;;;;;;7.83;67.15;94698.25;5001898;28;20137;-90
2022/03/31 04:01:04;;;;;;;28.35;20.10;;;;;;;7.74;67.54;94698.69;5002032;28;20047;-92
2022/03/31 04:03:53;;;;;;;30.60;19.98;;;;;;;7.68;68.04;94702.94;5010423;28;20121;-89
2022/03/31 04:06:28;;;;;;;31.13;19.42;;;;;;;7.60;67.95;94698.00;5009294;28;20077;-90
2022/03/31 04:09:13;;;;;;;29.60;19.98;;;;;;;7.58;68.90;94700.00;5009630;28;20050;-90
2022/03/31 04:12:00;;;;;;;32.65;20.80;;;;;;;7.54;69.28;94701.44;5020872;28;20074;-89
2022/03/31 04:14:40;;;;;;;32.22;20.10;;;;;;;7.46;69.23;94705.09;5017314;28;20046;-88
2022/03/31 04:17:22;;;;;;;29.92;20.63;;;;;;;7.41;69.36;94704.91;5002455;28;20053;-90
2022/03/31 04:20:04;;;;;;;31.30;20.05;;;;;;;7.37;69.30;94704.53;5001185;28;20106;-89
2022/03/31 04:22:45;;;;;;;26.73;19.23;;;;;;;7.38;70.28;94706.13;5000916;28;20061;-87
2022/03/31 04:25:16;;;;;;;30.83;20.67;;;;;;;7.41;69.42;94705.72;4999770;28;20061;-89
2022/03/31 04:30:48;;;;;;;29.38;20.20;;;;;;;7.42;69.66;94699.50;4998372;28;20522;-87
2022/03/31 04:33:22;;;;;;;27.08;18.38;;;;;;;7.44;69.90;94701.91;4999381;28;20065;-89
2022/03/31 04:36:07;;;;;;;27.65;19.08;;;;;;;7.53;70.10;94697.25;4999016;28;20046;-91
2022/03/31 04:38:46;;;;;;;29.35;19.98;;;;;;;7.57;69.38;94698.44;5000715;28;20077;-89
2022/03/31 04:47:08;;;;;;;29.67;20.02;;;;;;;7.56;69.74;94696.84;4998124;28;20052;-91
2022/03/31 04:52:37;;;;;;;32.80;20.30;;;;;;;7.59;69.90;94706.81;4995331;28;20097;-86
2022/03/31 04:58:07;;;;;;;27.98;19.35;;;;;;;7.53;69.64;94698.06;4997445;28;20294;-90
2022/03/31 05:00:46;;;;;;;28.98;20.23;;;;;;;7.48;70.05;94699.66;4998780;28;20064;-88
2022/03/31 05:06:13;;;;;;;28.30;18.85;;;;;;;7.54;69.84;94702.25;4999560;28;20141;-88
2022/03/31 05:09:00;;;;;;;25.13;17.00;;;;;;;7.58;69.28;94698.22;4999871;28;20053;-88
2022/03/31 05:11:40;;;;;;;22.48;16.35;;;;;;;7.59;69.06;94697.22;4999584;28;20050;-88
2022/03/31 05:14:41;;;;;;;23.83;17.08;;;;;;;7.55;69.46;94684.88;4999395;28;20058;-86
2022/03/31 05:17:22;;;;;;;23.08;16.02;;;;;;;7.58;70.43;94689.63;4998795;28;20054;-89
2022/03/31 05:20:01;;;;;;;21.40;15.48;;;;;;;7.65;70.61;94687.78;4998873;28;20456;-91
2022/03/31 05:25:19;;;;;;;21.65;16.15;;;;;;;7.86;70.02;94696.25;4997530;28;20058;-83
2022/03/31 05:27:53;;;;;;;22.55;15.93;;;;;;;7.93;70.24;94694.38;4999997;28;20042;-90
2022/03/31 05:30:34;;;;;;;24.42;18.27;;;;;;;8.03;70.23;94695.50;4999167;28;20074;-88
2022/03/31 05:33:25;;;;;;;23.95;16.45;;;;;;;8.10;70.20;94698.03;4999958;28;20057;-90
2022/03/31 05:38:52;;;;;;;22.75;16.42;;;;;;;8.18;69.72;94694.38;4999371;28;20050;-87
2022/03/31 05:44:40;;;;;;;25.70;16.92;;;;;;;8.31;69.31;94693.44;5000181;28;20053;-86
2022/03/31 05:47:15;;;;;;;27.17;17.48;;;;;;;8.33;68.83;94692.25;4999449;28;20050;-89
2022/03/31 05:49:58;;;;;;;24.45;17.17;;;;;;;8.32;68.15;94697.66;5001534;28;20050;-89
2022/03/31 05:52:43;;;;;;;23.85;15.65;;;;;;;8.30;68.30;94691.88;5001160;28;20046;-87
2022/03/31 05:55:22;;;;;;;23.83;16.83;;;;;;;8.32;67.62;94689.84;5002226;28;20072;-90
2022/03/31 05:58:01;;;;;;;17.95;14.68;;;;;;;8.30;67.20;94676.28;5001378;28;20077;-89
2022/03/31 06:00:39;;;;;;;21.25;14.70;;;;;;;8.25;67.66;94675.13;5002162;28;20097;-89
2022/03/31 06:03:22;;;;;;;19.92;15.02;;;;;;;8.27;67.33;94680.13;5002355;28;20066;-88
2022/03/31 06:08:53;;;;;;;24.42;18.20;;;;;;;8.30;67.73;94684.09;5000938;28;20057;-90
2022/03/31 06:11:37;;;;;;;24.05;17.13;;;;;;;8.33;67.72;94686.25;5003124;28;20050;-87
2022/03/31 06:14:12;;;;;;;23.65;17.27;;;;;;;8.32;67.94;94684.66;5001148;28;20078;-90
2022/03/31 06:19:56;;;;;;;23.70;16.63;;;;;;;8.36;68.03;94691.81;5001008;28;20077;-89
2022/03/31 06:22:44;;;;;;;27.83;18.13;;;;;;;8.39;67.70;94693.19;5000960;28;20497;-88
2022/03/31 06:25:25;;;;;;;24.15;17.38;;;;;;;8.41;67.92;94697.19;5001481;28;20062;-86
2022/03/31 06:28:05;;;;;;;28.20;18.80;;;;;;;8.39;66.99;94688.78;5000574;28;20493;-87
2022/03/31 06:36:32;;;;;;;30.23;19.58;;;;;;;7.98;67.75;94695.34;4999621;28;20579;-89
2022/03/31 06:39:36;;;;;;;25.30;18.45;;;;;;;7.92;68.94;94685.03;5000243;28;20129;-89
2022/03/31 06:42:14;;;;;;;31.02;18.50;;;;;;;7.92;68.03;94679.81;5000685;28;20050;-88
2022/03/31 06:45:04;;;;;;;30.20;19.65;;;;;;;7.90;68.18;94685.22;5000668;28;20111;-89
2022/03/31 06:48:12;;;;;;;26.60;17.85;;;;;;;7.88;68.38;94681.25;5000325;28;20050;-91
2022/03/31 06:51:01;;;;;;;31.27;18.38;;;;;;;7.82;68.20;94686.25;5000928;28;20429;-89
2022/03/31 06:53:42;;;;;;;28.45;18.05;;;;;;;7.83;68.79;94682.69;5000699;28;20055;-85
2022/03/31 06:56:32;;;;;;;27.17;18.33;;;;;;;7.91;69.29;94683.41;4999405;28;20062;-89
2022/03/31 06:59:17;;;;;;;25.48;19.35;;;;;;;8.02;68.49;94682.72;5001188;28;20065;-88
2022/03/31 07:01:54;;;;;;;24.70;17.88;;;;;;;8.11;68.67;94689.25;5001363;28;20054;-87
2022/03/31 07:04:32;;;;;;;28.80;18.25;;;;;;;8.17;67.95;94679.81;5001802;28;20078;-85
2022/03/31 07:07:12;;;;;;;29.85;17.92;;;;;;;8.20;67.84;94687.97;5001111;28;20064;-86
2022/03/31 07:09:45;;;;;;;26.98;17.23;;;;;;;8.17;67.58;94674.59;5000961;28;20050;-89
2022/03/31 07:12:44;;;;;;;25.77;17.92;;;;;;;8.25;68.52;94676.94;5001524;28;20105;-86
2022/03/31 07:15:28;;;;;;;28.02;18.35;;;;;;;8.33;68.12;94683.66;5001034;28;20054;-86
2022/03/31 07:18:14;;;;;;;26.42;17.95;;;;;;;8.37;67.92;94683.00;5000309;28;20120;-85
2022/03/31 07:20:49;;;;;;;23.75;17.80;;;;;;;8.33;67.13;94676.66;5001511;28;20505;-89
2022/03/31 07:23:31;;;;;;;26.17;17.60;;;;;;;8.24;67.55;94670.13;5001215;28;20058;-84
2022/03/31 07:26:09;;;;;;;28.83;18.25;;;;;;;8.25;67.45;94669.16;5000559;28;20133;-86
2022/03/31 07:28:48;;;;;;;21.88;15.68;;;;;;;8.25;67.51;94674.34;5001396;28;20572;-88
2022/03/31 07:31:30;;;;;;;20.80;15.52;;;;;;;8.21;66.95;94667.97;5001421;28;20046;-89
2022/03/31 07:34:06;;;;;;;17.08;14.02;;;;;;;8.18;67.22;94669.22;5014011;28;20094;-88
2022/03/31 07:36:47;;;;;;;20.40;14.30;;;;;;;8.18;67.49;94669.22;5016968;28;20091;-90
2022/03/31 07:39:27;;;;;;;20.42;14.77;;;;;;;8.20;67.23;94672.38;5006902;28;20050;-90
2022/03/31 07:42:04;;;;;;;20.77;15.35;;;;;;;8.19;66.93;94664.81;5009312;28;20042;-89
2022/03/31 07:44:50;;;;;;;;;;;;;;;8.23;67.58;94666.75;5013204;28;20114;-90
2022/03/31 07:47:27;;;;;;;19.17;14.52;;;;;;;8.25;66.84;94664.75;5006974;28;19989;-89
2022/03/31 07:50:10;;;;;;;19.33;15.32;;;;;;;8.23;66.84;94663.38;5003102;28;20096;-89
2022/03/31 07:52:57;;;;;;;20.15;15.30;;;;;;;8.20;66.78;94656.81;5002972;28;20537;-89
2022/03/31 07:55:29;;;;;;;21.05;15.75;;;;;;;8.20;67.10;94662.00;5004717;28;20480;-89
2022/03/31 07:58:05;;;;;;;17.05;13.20;;;;;;;8.18;67.01;94658.81;5004840;28;20097;-90
2022/03/31 08:00:50;;;;;;;16.60;13.95;;;;;;;8.23;67.94;94648.56;5005210;28;20070;-90
2022/03/31 08:06:24;;;;;;;25.33;15.38;;;;;;;8.30;67.08;94650.31;4999974;28;20054;-88
2022/03/31 08:09:06;;;;;;;19.45;14.80;;;;;;;8.30;67.25;94645.91;5004311;28;20050;-87
2022/03/31 08:11:58;;;;;;;20.98;14.20;;;;;;;8.35;67.24;94650.44;5003896;28;20077;-88
2022/03/31 08:14:40;;;;;;;18.00;14.15;;;;;;;8.37;67.06;94648.44;5002979;28;20073;-90
2022/03/31 08:17:20;;;;;;;18.17;14.07;;;;;;;8.44;67.29;94646.63;5001550;28;20105;-88
2022/03/31 08:19:55;;;;;;;23.15;14.20;;;;;;;8.51;67.03;94649.94;5003580;28;20492;-87
2022/03/31 08:22:44;;;;;;;18.05;14.27;;;;;;;8.58;67.13;94648.03;5003486;28;20055;-88
2022/03/31 08:25:32;;;;;;;21.70;15.43;;;;;;;8.70;67.95;94637.69;5003556;28;20054;-81
2022/03/31 08:28:16;;;;;;;26.77;18.58;;;;;;;8.81;67.52;94638.78;5002486;28;20050;-89
2022/03/31 08:30:55;;;;;;;23.30;16.73;;;;;;;8.89;67.81;94635.88;5003705;28;20055;-83
2022/03/31 08:33:40;;;;;;;23.35;17.48;;;;;;;8.97;67.50;94629.59;5004367;28;20124;-86
2022/03/31 08:36:16;;;;;;;21.52;17.02;;;;;;;8.97;66.35;94630.41;5004242;28;20068;-87
2022/03/31 08:38:54;;;;;;;19.77;15.30;;;;;;;8.94;66.50;94632.63;5003488;28;20042;-89
2022/03/31 08:41:33;;;;;;;18.13;14.70;;;;;;;8.91;66.20;94628.66;5004724;28;20050;-86
2022/03/31 08:44:16;;;;;;;19.42;13.93;;;;;;;8.92;66.79;94632.88;5003831;28;20057;-89
2022/03/31 08:49:36;;;;;;;26.13;17.85;;;;;;;8.99;67.11;94625.78;5001006;28;20452;-84
2022/03/31 08:52:19;;;;;;;23.35;17.92;;;;;;;9.07;67.21;94624.66;5003878;28;20069;-83
2022/03/31 08:54:54;;;;;;;29.92;18.17;;;;;;;9.14;66.98;94614.16;5003126;28;20054;-88
2022/03/31 08:57:31;;;;;;;;;;;;;;;9.24;67.40;94614.44;5001459;28;20060;-88
2022/03/31 09:00:38;;;;;;;22.05;15.45;;;;;;;9.35;66.87;94618.88;5002397;28;19928;-86
2022/03/31 09:03:50;;;;;;;24.13;17.10;;;;;;;9.48;66.81;94618.66;5006618;28;20117;-90
2022/03/31 09:07:07;;;;;;;22.70;16.88;;;;;;;9.52;66.25;94610.44;4999695;28;20054;-89
2022/03/31 09:10:00;;;;;;;24.50;17.27;;;;;;;9.49;66.60;94617.66;5002215;28;20046;-88
2022/03/31 09:12:57;;;;;;;21.98;17.05;;;;;;;9.53;67.03;94612.00;5002831;28;20054;-88
2022/03/31 09:15:35;;;;;;;21.85;15.85;;;;;;;9.59;66.56;94617.09;4986773;28;20050;-88
2022/03/31 09:18:16;;;;;;;21.05;15.82;;;;;;;9.66;66.68;94617.00;5003427;28;20058;-89
2022/03/31 09:21:01;;;;;;;23.75;17.17;;;;;;;9.73;66.71;94607.28;5004219;28;20062;-91
2022/03/31 09:23:46;;;;;;;23.73;16.77;;;;;;;9.81;66.31;94608.75;5003471;28;20069;-88
2022/03/31 09:26:32;;;;;;;20.35;15.30;;;;;;;9.87;66.51;94615.69;5003081;28;20085;-86
2022/03/31 09:29:21;;;;;;;22.30;15.82;;;;;;;9.95;65.98;94611.94;5002915;28;20137;-88
2022/03/31 09:32:07;;;;;;;21.25;16.13;;;;;;;10.00;65.53;94612.06;5002344;28;20118;-89
2022/03/31 09:37:39;;;;;;;20.50;15.35;;;;;;;10.04;66.04;94600.16;5014545;23;20050;-80
2022/03/31 09:40:10;;;;;;;20.67;15.60;;;;;;;10.09;65.79;94597.66;4993893;28;20088;-80
2022/03/31 09:42:40;;;;;;;21.88;15.75;;;;;;;10.18;65.75;94592.91;4994152;28;20501;-80
2022/03/31 09:45:10;;;;;;;22.50;16.27;;;;;;;10.30;65.90;94596.34;4994330;28;20137;-80
2022/03/31 09:47:45;;;;;;;19.42;14.68;;;;;;;10.41;65.45;94598.13;4993667;28;20057;-80
2022/03/31 09:50:14;;;;;;;18.40;13.50;;;;;;;10.50;64.75;94588.91;4994645;28;20054;-80
2022/03/31 09:52:44;;;;;;;18.08;14.35;;;;;;;10.55;64.38;94588.22;4993773;28;20054;-80
2022/03/31 09:55:18;;;;;;;21.02;14.68;;;;;;;10.57;64.30;94588.78;4994339;28;20065;-80
2022/03/31 09:57:48;;;;;;;18.20;13.73;;;;;;;10.56;63.82;94583.78;4993843;28;20420;-80
2022/03/31 10:00:17;;;;;;;19.42;14.68;;;;;;;10.55;64.01;94583.00;4994035;28;20455;-80
2022/03/31 10:02:46;;;;;;;18.08;12.88;;;;;;;10.56;64.23;94581.19;4994021;28;20423;-79
2022/03/31 10:05:34;;;;;;;19.17;13.10;;;;;;;10.59;63.84;94586.75;4994090;28;20058;-80
2022/03/31 10:08:02;;;;;;;18.98;13.85;;;;;;;10.64;64.39;94586.03;4993411;28;20058;-80
2022/03/31 10:10:33;;;;;;;17.88;14.90;;;;;;;10.66;63.57;94590.00;4993826;28;20053;-80
2022/03/31 10:13:09;;;;;;;18.10;13.68;;;;;;;10.62;63.60;94583.66;4993703;28;20056;-80
2022/03/31 10:15:40;;;;;;;19.95;14.30;;;;;;;10.59;63.50;94583.34;4993557;28;20488;-80
2022/03/31 10:18:08;;;;;;;16.83;12.82;;;;;;;10.58;64.17;94592.97;4992963;28;20104;-80
2022/03/31 10:20:36;;;;;;;16.00;12.25;;;;;;;10.60;63.72;94583.09;4993535;28;20133;-81
2022/03/31 10:25:51;;;;;;;16.95;13.32;;;;;;;10.57;63.25;94585.41;4993358;28;20432;-80
2022/03/31 10:28:21;;;;;;;16.67;13.02;;;;;;;10.46;63.19;94587.78;5009181;28;20068;-80
2022/03/31 10:30:57;;;;;;;18.45;13.45;;;;;;;10.40;63.98;94585.31;5013115;28;20039;-80
2022/03/31 10:33:30;;;;;;;16.05;12.82;;;;;;;10.41;64.72;94579.09;5012578;28;20050;-80
2022/03/31 10:36:09;;;;;;;21.50;13.80;;;;;;;10.44;64.04;94576.81;5006881;28;20106;-80
2022/03/31 10:38:51;;;;;;;19.60;13.70;;;;;;;10.44;63.89;94581.22;5005599;28;20122;-80
2022/03/31 10:41:29;;;;;;;22.08;13.77;;;;;;;10.40;63.72;94574.88;5004413;28;20108;-80
2022/03/31 10:43:58;;;;;;;20.95;15.02;;;;;;;10.33;63.58;94569.03;4994724;28;20137;-80
2022/03/31 10:46:28;;;;;;;18.92;14.38;;;;;;;10.27;63.82;94576.69;4994385;28;20058;-80
2022/03/31 10:48:57;;;;;;;18.92;13.02;;;;;;;10.25;63.94;94573.50;4993437;28;20155;-80
2022/03/31 10:51:33;;;;;;;19.55;14.13;;;;;;;10.23;64.11;94572.97;4993346;28;20516;-80
2022/03/31 10:54:00;;;;;;;19.52;13.45;;;;;;;10.19;64.05;94571.84;4993241;28;20051;-80
2022/03/31 10:56:31;;;;;;;19.90;14.30;;;;;;;10.12;64.42;94568.53;4992761;28;20054;-80
2022/03/31 10:59:01;;;;;;;18.55;13.82;;;;;;;10.06;64.50;94562.44;4993036;28;20170;-80
2022/03/31 11:01:33;;;;;;;20.50;14.13;;;;;;;10.03;64.66;94570.69;4993092;28;20417;-80
2022/03/31 11:04:03;;;;;;;22.10;13.27;;;;;;;9.97;64.39;94565.63;4993367;28;20058;-80
2022/03/31 11:06:31;;;;;;;18.40;13.20;;;;;;;9.95;64.91;94559.84;4992685;28;20425;-80
2022/03/31 11:09:19;;;;;;;25.45;13.80;;;;;;;9.93;65.04;94567.09;4998507;28;20061;-80
2022/03/31 11:11:51;;;;;;;18.20;13.00;;;;;;;9.92;65.14;94565.50;4995313;28;20047;-80
2022/03/31 11:14:20;;;;;;;22.23;14.65;;;;;;;9.90;64.97;94566.53;4993160;28;20050;-80
2022/03/31 11:16:50;;;;;;;19.27;13.10;;;;;;;9.89;64.90;94564.94;4992689;28;20053;-80
2022/03/31 11:19:20;;;;;;;23.23;14.23;;;;;;;9.88;65.00;94555.56;4993154;28;20046;-80
2022/03/31 11:21:48;;;;;;;22.33;14.82;;;;;;;9.87;65.02;94553.97;4993366;28;20054;-80
2022/03/31 11:24:24;;;;;;;21.00;13.93;;;;;;;9.89;65.76;94558.94;4993009;28;20056;-80
2022/03/31 11:26:54;;;;;;;21.05;14.35;;;;;;;9.93;65.47;94554.06;4992731;28;20052;-80
2022/03/31 11:29:26;;;;;;;21.00;14.63;;;;;;;9.94;65.09;94553.06;4994848;28;20092;-81
2022/03/31 11:31:56;;;;;;;24.38;15.60;;;;;;;9.93;64.97;94554.06;4997018;28;20130;-80
2022/03/31 11:34:27;;;;;;;21.17;14.13;;;;;;;9.93;65.52;94554.88;4996931;28;20133;-80
2022/03/31 11:37:00;;;;;;;21.73;15.35;;;;;;;9.93;65.44;94548.84;4996249;28;20489;-80
2022/03/31 11:39:28;;;;;;;21.10;14.80;;;;;;;9.94;65.32;94550.47;4996913;28;20050;-79
2022/03/31 11:42:00;;;;;;;22.23;14.52;;;;;;;9.89;64.92;94546.72;4996861;28;20074;-80
2022/03/31 11:44:31;;;;;;;27.15;14.90;;;;;;;9.88;65.03;94545.16;4996765;28;20436;-80
2022/03/31 11:46:58;;;;;;;28.70;14.82;;;;;;;9.88;64.87;94552.16;4996100;28;20054;-80
2022/03/31 11:49:28;;;;;;;20.08;14.30;;;;;;;9.87;65.00;94546.16;4997520;28;20042;-80
2022/03/31 11:51:57;;;;;;;25.13;13.82;;;;;;;9.87;64.98;94540.16;4996555;28;20054;-80
2022/03/31 11:54:27;;;;;;;23.17;13.88;;;;;;;9.88;65.36;94545.16;4996501;28;20137;-80
2022/03/31 11:57:03;;;;;;;21.42;13.55;;;;;;;9.90;65.46;94550.91;4996045;28;20061;-80
2022/03/31 11:59:32;;;;;;;20.67;14.00;;;;;;;9.88;64.97;94536.53;4996153;28;20092;-80
2022/03/31 12:02:00;;;;;;;22.10;14.65;;;;;;;9.88;65.05;94539.94;4996305;28;20082;-80
2022/03/31 12:04:31;;;;;;;20.40;14.40;;;;;;;9.88;65.12;94537.34;4996701;28;20074;-80
2022/03/31 12:07:00;;;;;;;22.27;14.95;;;;;;;9.91;65.38;94528.28;4996693;28;20137;-80
2022/03/31 12:09:28;;;;;;;26.67;15.85;;;;;;;9.93;64.99;94533.22;4996909;28;20046;-80
2022/03/31 12:11:57;;;;;;;24.42;14.35;;;;;;;9.94;65.25;94537.44;4996464;28;20121;-80
2022/03/31 12:14:28;;;;;;;19.80;14.35;;;;;;;9.93;65.15;94528.84;4996182;28;20512;-80
2022/03/31 12:16:57;;;;;;;22.38;15.88;;;;;;;9.96;65.41;94527.56;4995776;28;20046;-80
2022/03/31 12:19:25;;;;;;;21.75;14.63;;;;;;;9.98;65.11;94535.97;4996297;28;20050;-80
2022/03/31 12:21:54;;;;;;;22.90;16.38;;;;;;;10.00;65.41;94531.31;4996023;28;20061;-80
2022/03/31 12:24:22;;;;;;;22.55;14.55;;;;;;;10.02;65.41;94522.25;4996711;28;20061;-80
2022/03/31 12:26:54;;;;;;;22.95;15.32;;;;;;;10.08;65.93;94525.75;4995639;28;20050;-80
2022/03/31 12:29:23;;;;;;;23.83;16.45;;;;;;;10.11;66.16;94525.28;4996042;28;20047;-80
2022/03/31 12:32:01;;;;;;;22.90;16.40;;;;;;;10.15;66.65;94526.41;4995860;28;20133;-80
2022/03/31 12:34:29;;;;;;;25.00;16.60;;;;;;;10.15;65.98;94521.22;4996243;28;20058;-80
2022/03/31 12:36:58;;;;;;;23.30;17.33;;;;;;;10.14;65.97;94519.63;4995415;28;20516;-80
2022/03/31 12:39:25;;;;;;;24.38;17.08;;;;;;;10.12;66.03;94529.47;4996448;28;20054;-80
2022/03/31 12:41:55;;;;;;;27.35;18.10;;;;;;;10.08;66.09;94520.56;4995331;28;20492;-80
2022/03/31 12:44:25;;;;;;;24.60;17.25;;;;;;;10.03;66.29;94523.03;4995786;28;20125;-80
2022/03/31 12:46:55;;;;;;;25.65;17.73;;;;;;;9.98;66.35;94526.31;4995212;28;20081;-80
2022/03/31 12:49:26;;;;;;;26.02;18.15;;;;;;;9.98;66.62;94525.53;4995867;28;20062;-80
2022/03/31 12:51:57;;;;;;;23.83;16.35;;;;;;;9.99;66.60;94527.94;4995304;28;20457;-80